Time;durP1;ratioP1;P1;durP2;ratioP2;P2;SDS_P1;SDS_P2;PMS_P1;PMS_P2;Temp;Humidity;BMP_temperature;BMP_pressure;BME280_temperature;BME280_humidity;BME280_pressure;Samples;Min_cycle;Max_cycle;Signal;HPM_P1;HPM_P2
2024/01/03 00:01:13;;;;;;;7.20;4.78;;;;;;;10.27;100.00;97709.50;6016346;23;20031;-71
2024/01/03 00:03:39;;;;;;;3.90;3.70;;;;;;;10.33;100.00;97722.03;6033348;23;20010;-71
2024/01/03 00:06:06;;;;;;;3.60;3.50;;;;;;;10.33;100.00;97685.34;6046091;23;20094;-72
2024/01/03 00:08:38;;;;;;;3.80;3.70;;;;;;;9.89;100.00;97666.94;6025517;23;20027;-70
2024/01/03 00:11:05;;;;;;;4.43;4.22;;;;;;;10.13;100.00;97699.56;6041168;23;20073;-72
2024/01/03 00:14:06;;;;;;;4.28;3.97;;;;;;;9.84;100.00;97681.44;6058349;23;20404;-73
2024/01/03 00:16:37;;;;;;;6.95;4.85;;;;;;;9.64;100.00;97689.47;6052143;23;20492;-72
2024/01/03 00:19:05;;;;;;;6.57;4.30;;;;;;;10.07;100.00;97742.91;6044619;23;20509;-71
2024/01/03 00:21:33;;;;;;;5.43;3.67;;;;;;;9.98;100.00;97733.31;6042466;23;20428;-72
2024/01/03 00:24:09;;;;;;;3.90;3.70;;;;;;;10.07;100.00;97702.78;6043991;23;20446;-71
2024/01/03 00:26:40;;;;;;;5.13;3.78;;;;;;;10.07;100.00;97750.78;6013441;23;20030;-74
2024/01/03 00:29:26;;;;;;;5.35;4.78;;;;;;;10.03;100.00;97762.53;6038553;23;20025;-74
2024/01/03 00:31:52;;;;;;;4.50;4.18;;;;;;;10.00;100.00;97783.75;6041475;23;20287;-73
2024/01/03 00:34:22;;;;;;;4.40;4.00;;;;;;;10.06;100.00;97777.94;6025686;23;20368;-75
2024/01/03 00:36:51;;;;;;;4.00;3.80;;;;;;;9.50;100.00;97706.50;6049039;23;20294;-72
2024/01/03 00:39:25;;;;;;;5.75;5.38;;;;;;;10.04;100.00;97789.53;6023577;23;20437;-70
2024/01/03 00:41:51;;;;;;;5.97;4.25;;;;;;;10.16;100.00;97765.59;6047034;23;20037;-72
2024/01/03 00:44:18;;;;;;;4.00;3.80;;;;;;;9.85;100.00;97693.59;6010033;23;20038;-70
2024/01/03 00:46:45;;;;;;;3.60;3.50;;;;;;;10.12;100.00;97790.47;6032123;23;20014;-71
2024/01/03 00:49:12;;;;;;;5.63;4.85;;;;;;;9.72;100.00;97712.25;5994462;23;20056;-71
2024/01/03 00:51:47;;;;;;;3.95;3.70;;;;;;;9.94;100.00;97748.53;6046989;23;20014;-72
2024/01/03 00:54:16;;;;;;;3.90;3.72;;;;;;;9.94;100.00;97717.09;5999643;23;20042;-71
2024/01/03 00:56:44;;;;;;;3.67;3.58;;;;;;;10.16;100.00;97701.88;6028916;23;20429;-71
2024/01/03 00:59:11;;;;;;;5.93;5.35;;;;;;;10.07;99.32;97703.59;5995985;23;20022;-72
2024/01/03 01:01:38;;;;;;;4.57;3.70;;;;;;;9.96;99.39;97702.06;6058694;23;20335;-72
2024/01/03 01:04:05;;;;;;;4.95;3.97;;;;;;;9.82;99.84;97712.22;6053842;23;20151;-72
2024/01/03 01:06:32;;;;;;;4.53;3.75;;;;;;;10.06;100.00;97764.81;6056027;23;20026;-72
2024/01/03 01:09:01;;;;;;;3.72;3.53;;;;;;;10.06;100.00;97764.00;6047057;23;20052;-72
2024/01/03 01:11:28;;;;;;;4.70;3.75;;;;;;;9.87;100.00;97757.94;6023763;23;20465;-73
2024/01/03 01:13:54;;;;;;;3.50;3.40;;;;;;;10.04;100.00;97818.34;6027597;23;20031;-73
2024/01/03 01:16:21;;;;;;;3.92;3.63;;;;;;;9.75;100.00;97791.38;6027052;23;20222;-73
2024/01/03 01:18:48;;;;;;;3.45;3.35;;;;;;;10.04;100.00;97847.19;6025517;23;20038;-73
2024/01/03 01:21:14;;;;;;;5.25;4.95;;;;;;;10.05;100.00;97869.81;6028298;23;20038;-74
2024/01/03 01:23:42;;;;;;;5.13;3.90;;;;;;;9.95;100.00;97860.19;6018563;23;20333;-72
2024/01/03 01:26:09;;;;;;;3.40;3.30;;;;;;;9.49;100.00;97834.91;6020929;23;20031;-74
2024/01/03 01:28:36;;;;;;;3.67;3.58;;;;;;;9.65;100.00;97878.81;5983036;23;20424;-71
2024/01/03 01:31:05;;;;;;;3.95;3.75;;;;;;;10.00;100.00;97938.34;6018044;23;20050;-74
2024/01/03 01:33:31;;;;;;;3.67;3.50;;;;;;;9.91;100.00;97933.97;6012863;23;21004;-72
2024/01/03 01:35:58;;;;;;;3.90;3.70;;;;;;;9.80;100.00;97953.31;5989218;23;20034;-71
2024/01/03 01:38:24;;;;;;;4.40;4.10;;;;;;;9.84;100.00;97995.75;6023975;23;20206;-70
2024/01/03 01:40:51;;;;;;;3.38;3.28;;;;;;;9.61;100.00;97972.53;6007751;23;20031;-70
2024/01/03 01:43:17;;;;;;;4.63;4.43;;;;;;;9.83;100.00;98009.84;6020752;23;20050;-70
2024/01/03 01:45:46;;;;;;;3.53;3.42;;;;;;;9.42;100.00;97910.56;6029544;23;20055;-72
2024/01/03 01:48:15;;;;;;;3.40;3.30;;;;;;;9.97;100.00;98012.00;5981796;23;20026;-72
2024/01/03 01:50:43;;;;;;;7.00;3.97;;;;;;;9.55;100.00;97941.66;6021937;23;20218;-71
2024/01/03 01:53:10;;;;;;;4.70;4.50;;;;;;;9.66;100.00;97962.47;6026852;23;20027;-73
2024/01/03 01:55:39;;;;;;;3.70;3.60;;;;;;;10.03;100.00;98040.25;6024346;23;20018;-72
2024/01/03 01:58:08;;;;;;;3.47;3.38;;;;;;;9.50;100.00;97963.06;6027264;23;20068;-72
2024/01/03 02:00:37;;;;;;;3.88;3.67;;;;;;;10.01;100.00;98051.84;6022649;23;20097;-72
2024/01/03 02:03:04;;;;;;;4.60;3.53;;;;;;;9.82;100.00;98029.13;5995930;23;20033;-72
2024/01/03 02:05:32;;;;;;;3.80;3.65;;;;;;;10.04;100.00;98030.59;6019371;23;20034;-72
2024/01/03 02:07:59;;;;;;;4.32;3.95;;;;;;;9.93;100.00;98010.63;6021500;23;20086;-73
2024/01/03 02:10:25;;;;;;;4.20;3.75;;;;;;;10.15;100.00;98033.88;6003984;23;20288;-72
2024/01/03 02:12:52;;;;;;;3.60;3.50;;;;;;;10.13;100.00;98014.03;6020693;23;20035;-71
2024/01/03 02:15:18;;;;;;;4.60;4.40;;;;;;;10.16;100.00;98032.06;5990077;23;20019;-74
2024/01/03 02:17:46;;;;;;;3.75;3.50;;;;;;;9.83;100.00;97941.75;6024213;23;20057;-72
2024/01/03 02:20:13;;;;;;;3.70;3.45;;;;;;;9.73;100.00;97955.69;5996244;23;20054;-73
2024/01/03 02:22:40;;;;;;;4.68;3.50;;;;;;;10.04;100.00;97992.09;6022217;23;20101;-71
2024/01/03 02:25:10;;;;;;;4.35;4.15;;;;;;;9.50;100.00;97896.75;5993688;23;20083;-73
2024/01/03 02:27:37;;;;;;;3.58;3.47;;;;;;;9.75;100.00;97950.31;6028096;23;20033;-72
2024/01/03 02:30:04;;;;;;;3.50;3.40;;;;;;;9.95;100.00;98020.00;6000874;23;20015;-73
2024/01/03 02:32:31;;;;;;;3.70;3.60;;;;;;;9.61;100.00;97929.81;6024940;23;20234;-71
2024/01/03 02:34:58;;;;;;;5.68;3.63;;;;;;;9.72;100.00;97937.47;6023945;23;20612;-71
2024/01/03 02:37:25;;;;;;;4.75;4.20;;;;;;;9.70;100.00;97939.41;5976186;23;20588;-73
2024/01/03 02:39:51;;;;;;;3.97;3.78;;;;;;;9.81;100.00;98002.13;6025449;23;20050;-70
2024/01/03 02:42:18;;;;;;;4.28;4.07;;;;;;;9.62;100.00;97987.25;5995839;23;20035;-72
2024/01/03 02:44:44;;;;;;;4.10;3.70;;;;;;;9.79;100.00;98023.19;6024614;23;20144;-73
2024/01/03 02:47:11;;;;;;;4.78;4.57;;;;;;;9.71;100.00;98036.19;5980364;23;20447;-74
2024/01/03 02:49:37;;;;;;;3.67;3.47;;;;;;;9.67;100.00;98018.28;6025261;23;20075;-74
2024/01/03 02:52:04;;;;;;;3.50;3.40;;;;;;;9.83;100.00;98007.22;6030058;23;20083;-72
2024/01/03 02:54:30;;;;;;;3.92;3.72;;;;;;;9.82;100.00;97993.28;6003957;23;20321;-71
2024/01/03 02:56:59;;;;;;;4.50;4.20;;;;;;;9.78;100.00;97997.16;6029643;23;20035;-72
2024/01/03 02:59:26;;;;;;;4.20;4.00;;;;;;;9.13;100.00;97894.91;6005478;23;20133;-73
2024/01/03 03:01:52;;;;;;;3.42;3.33;;;;;;;9.63;100.00;97978.44;6032618;23;20103;-71
2024/01/03 03:04:19;;;;;;;6.00;3.53;;;;;;;9.73;100.00;97947.00;6026815;23;20022;-72
2024/01/03 03:06:46;;;;;;;3.63;3.45;;;;;;;10.08;100.00;97987.41;6028259;23;20085;-73
2024/01/03 03:09:12;;;;;;;4.57;4.38;;;;;;;10.07;100.00;97983.16;6028067;23;20035;-73
2024/01/03 03:11:43;;;;;;;3.60;3.50;;;;;;;10.08;100.00;97997.88;6051700;23;20488;-73
2024/01/03 03:14:10;;;;;;;3.40;3.30;;;;;;;9.42;100.00;97889.63;6055954;23;20022;-73
2024/01/03 03:16:36;;;;;;;3.78;3.63;;;;;;;9.92;100.00;97985.38;6037215;23;20038;-73
2024/01/03 03:19:05;;;;;;;3.83;3.63;;;;;;;9.90;100.00;98001.28;6047480;23;20014;-72
2024/01/03 03:21:32;;;;;;;7.68;3.47;;;;;;;9.80;100.00;98003.06;6012505;23;20031;-71
2024/01/03 03:23:59;;;;;;;3.88;3.70;;;;;;;9.74;100.00;98035.06;6056445;23;20009;-73
2024/01/03 03:26:26;;;;;;;3.70;3.53;;;;;;;9.74;100.00;98035.91;6026664;23;20015;-72
2024/01/03 03:28:52;;;;;;;3.92;3.72;;;;;;;9.44;100.00;98020.34;6057947;23;20265;-70
2024/01/03 03:31:19;;;;;;;5.93;4.45;;;;;;;9.44;100.00;98046.53;6007669;23;20101;-73
2024/01/03 03:33:45;;;;;;;3.65;3.55;;;;;;;9.60;100.00;98065.13;6052421;23;20100;-71
2024/01/03 03:36:12;;;;;;;6.00;5.45;;;;;;;9.19;100.00;98012.09;6029231;23;20032;-71
2024/01/03 03:38:39;;;;;;;3.90;3.70;;;;;;;9.63;100.00;98085.81;6056102;23;20201;-73
2024/01/03 03:41:10;;;;;;;4.88;4.68;;;;;;;9.28;100.00;98044.47;6011819;23;20450;-72
2024/01/03 03:43:39;;;;;;;4.22;4.03;;;;;;;9.23;100.00;98037.03;6066401;23;20053;-71
2024/01/03 03:46:10;;;;;;;4.57;4.18;;;;;;;9.36;100.00;98078.63;6071431;23;20091;-71
2024/01/03 03:48:37;;;;;;;7.38;3.67;;;;;;;9.37;100.00;98077.66;6055950;23;20054;-72
2024/01/03 03:51:04;;;;;;;4.15;3.95;;;;;;;9.52;100.00;98107.72;6056084;23;20086;-71
2024/01/03 03:53:30;;;;;;;3.78;3.58;;;;;;;9.48;100.00;98142.16;6056539;23;20018;-73
2024/01/03 03:55:57;;;;;;;3.53;3.33;;;;;;;9.09;100.00;98103.66;6057091;23;20278;-71
2024/01/03 03:58:23;;;;;;;3.50;3.40;;;;;;;9.62;100.00;98175.78;6039632;23;20028;-73
2024/01/03 04:00:50;;;;;;;5.80;4.10;;;;;;;9.28;100.00;98141.28;6055065;23;20071;-74
2024/01/03 04:03:17;;;;;;;5.32;5.05;;;;;;;9.58;100.00;98200.59;6028690;23;20023;-72
2024/01/03 04:05:43;;;;;;;4.38;4.07;;;;;;;9.48;100.00;98174.41;6056718;23;20441;-73
2024/01/03 04:08:10;;;;;;;4.07;3.70;;;;;;;9.25;100.00;98134.53;6057561;23;20020;-72
2024/01/03 04:10:37;;;;;;;4.10;3.90;;;;;;;9.59;100.00;98208.31;6039808;23;20130;-72
2024/01/03 04:13:04;;;;;;;3.88;3.67;;;;;;;9.55;100.00;98185.97;6026620;23;20510;-71
2024/01/03 04:15:30;;;;;;;8.27;3.60;;;;;;;9.70;100.00;98193.44;6054094;23;20231;-72
2024/01/03 04:17:57;;;;;;;3.80;3.60;;;;;;;9.65;100.00;98167.66;6016710;23;20053;-73
2024/01/03 04:20:23;;;;;;;5.57;5.07;;;;;;;9.69;100.00;98168.22;6042891;23;20030;-73
2024/01/03 04:22:50;;;;;;;3.55;3.40;;;;;;;9.61;100.00;98153.19;6070532;23;20047;-71
2024/01/03 04:25:17;;;;;;;4.88;4.57;;;;;;;9.69;100.00;98176.09;6029579;23;20022;-74
2024/01/03 04:27:43;;;;;;;5.10;4.75;;;;;;;9.77;100.00;98177.06;6056471;23;20104;-74
2024/01/03 04:30:10;;;;;;;4.28;3.90;;;;;;;9.75;100.00;98144.94;6025931;23;20023;-72
2024/01/03 04:32:37;;;;;;;4.10;3.90;;;;;;;9.18;100.00;98075.84;6064031;23;20023;-72
2024/01/03 04:35:04;;;;;;;12.23;4.90;;;;;;;9.62;100.00;98172.34;6024962;23;20139;-72
2024/01/03 04:37:32;;;;;;;3.60;3.50;;;;;;;9.70;100.00;98186.44;6056605;23;20022;-71
2024/01/03 04:39:58;;;;;;;3.80;3.50;;;;;;;9.25;100.00;98118.84;6054285;23;20160;-72
2024/01/03 04:42:25;;;;;;;3.97;3.55;;;;;;;9.68;100.00;98208.47;6033934;23;20270;-72
2024/01/03 04:44:52;;;;;;;3.67;3.47;;;;;;;9.44;100.00;98219.31;6052951;23;20015;-72
2024/01/03 04:47:19;;;;;;;4.80;4.60;;;;;;;9.70;100.00;98280.72;6028137;23;20076;-73
2024/01/03 04:49:45;;;;;;;5.32;4.10;;;;;;;9.58;100.00;98272.13;6055391;23;20049;-71
2024/01/03 04:52:12;;;;;;;4.10;3.60;;;;;;;8.55;100.00;98089.19;6027773;23;20021;-72
2024/01/03 04:54:41;;;;;;;4.95;4.40;;;;;;;9.70;100.00;98324.38;6053948;23;20042;-74
2024/01/03 04:57:08;;;;;;;5.38;5.03;;;;;;;9.53;100.00;98370.38;6040798;23;20071;-72
2024/01/03 04:59:35;;;;;;;4.05;3.85;;;;;;;9.13;100.00;98352.78;6043428;23;20014;-73
2024/01/03 05:02:02;;;;;;;6.00;3.85;;;;;;;9.27;100.00;98423.13;6048586;23;20026;-71
2024/01/03 05:04:28;;;;;;;3.88;3.70;;;;;;;8.96;100.00;98430.91;6053358;23;20433;-73
2024/01/03 05:06:55;;;;;;;3.70;3.55;;;;;;;8.96;100.00;98423.06;6055609;23;20034;-74
2024/01/03 05:09:23;;;;;;;4.07;3.80;;;;;;;8.78;100.00;98414.94;6028962;23;20207;-72
2024/01/03 05:11:49;;;;;;;6.32;3.70;;;;;;;8.98;100.00;98446.47;6058018;23;20033;-74
2024/01/03 05:14:16;;;;;;;4.03;3.83;;;;;;;8.67;100.00;98425.41;6053998;23;20174;-70
2024/01/03 05:16:42;;;;;;;6.97;3.95;;;;;;;8.92;100.00;98492.28;6054521;23;20026;-72
2024/01/03 05:19:09;;;;;;;5.95;4.15;;;;;;;8.92;100.00;98517.59;6050059;23;20046;-73
2024/01/03 05:21:36;;;;;;;3.60;3.40;;;;;;;8.91;100.00;98515.94;6057095;23;20011;-73
2024/01/03 05:24:02;;;;;;;3.97;3.38;;;;;;;8.86;100.00;98510.22;6054420;23;20418;-73
2024/01/03 05:26:29;;;;;;;4.10;3.53;;;;;;;8.95;100.00;98502.47;6053436;23;20501;-74
2024/01/03 05:28:55;;;;;;;4.30;3.90;;;;;;;8.88;100.00;98497.84;6053600;23;20030;-73
2024/01/03 05:31:23;;;;;;;4.05;3.85;;;;;;;8.48;100.00;98439.16;6042193;23;20312;-72
2024/01/03 05:33:49;;;;;;;4.07;3.60;;;;;;;8.84;100.00;98497.28;6052740;23;20429;-71
2024/01/03 05:36:16;;;;;;;3.30;3.20;;;;;;;8.53;100.00;98457.06;6037013;23;20422;-70
2024/01/03 05:38:42;;;;;;;3.60;3.45;;;;;;;8.75;100.00;98504.06;6050769;23;20030;-73
2024/01/03 05:41:09;;;;;;;4.93;4.63;;;;;;;8.84;100.00;98515.59;6036441;23;20018;-73
2024/01/03 05:43:36;;;;;;;3.80;3.60;;;;;;;8.74;100.00;98498.97;6028134;23;20026;-73
2024/01/03 05:46:02;;;;;;;3.33;3.22;;;;;;;8.30;100.00;98415.28;6019894;23;20147;-72
2024/01/03 05:48:29;;;;;;;3.60;3.50;;;;;;;8.63;100.00;98468.44;6062057;23;20027;-74
2024/01/03 05:50:55;;;;;;;5.55;4.32;;;;;;;8.68;100.00;98468.94;6054081;23;20533;-73
2024/01/03 05:53:23;;;;;;;3.38;3.28;;;;;;;8.90;100.00;98507.25;6055837;23;20195;-71
2024/01/03 05:55:49;;;;;;;10.65;3.90;;;;;;;8.61;100.00;98466.91;6025323;23;20023;-72
2024/01/03 05:58:16;;;;;;;4.15;3.78;;;;;;;8.85;100.00;98509.41;6054316;23;20123;-73
2024/01/03 06:00:42;;;;;;;4.13;3.92;;;;;;;8.53;100.00;98447.44;6023086;23;20461;-71
2024/01/03 06:03:08;;;;;;;5.07;4.78;;;;;;;8.52;100.00;98452.78;6050561;23;20034;-71
2024/01/03 06:05:35;;;;;;;3.88;3.67;;;;;;;8.49;100.00;98448.63;6063460;23;20021;-74
2024/01/03 06:08:02;;;;;;;4.32;4.13;;;;;;;8.73;100.00;98498.13;6052664;23;20022;-73
2024/01/03 06:10:29;;;;;;;3.80;3.60;;;;;;;8.76;100.00;98505.75;6053002;23;20473;-71
2024/01/03 06:12:55;;;;;;;4.82;3.80;;;;;;;8.52;100.00;98498.06;6054583;23;20061;-72
2024/01/03 06:15:21;;;;;;;10.63;4.55;;;;;;;8.70;100.00;98523.69;6023293;23;20191;-72
2024/01/03 06:17:48;;;;;;;3.90;3.60;;;;;;;8.78;100.00;98519.53;6053227;23;20144;-70
2024/01/03 06:20:15;;;;;;;3.42;3.33;;;;;;;7.61;100.00;98313.63;6024884;23;20037;-71
2024/01/03 06:22:41;;;;;;;11.23;3.90;;;;;;;8.93;100.00;98500.94;6057530;23;20038;-71
2024/01/03 06:25:08;;;;;;;4.57;4.38;;;;;;;8.13;100.00;98332.16;6055621;23;20201;-73
2024/01/03 06:27:35;;;;;;;6.03;3.88;;;;;;;9.12;100.00;98474.09;6059102;23;20054;-71
2024/01/03 06:30:01;;;;;;;3.35;3.25;;;;;;;8.82;100.00;98428.59;6063651;23;20211;-73
2024/01/03 06:32:28;;;;;;;3.95;3.75;;;;;;;8.99;100.00;98466.44;6060685;23;20457;-71
2024/01/03 06:34:54;;;;;;;3.80;3.60;;;;;;;8.75;100.00;98443.94;6058825;23;20095;-72
2024/01/03 06:37:21;;;;;;;4.47;4.28;;;;;;;8.49;100.00;98408.59;6060033;23;20252;-73
2024/01/03 06:39:47;;;;;;;4.00;3.70;;;;;;;8.96;100.00;98490.22;6063119;23;20042;-73
2024/01/03 06:42:14;;;;;;;4.07;3.75;;;;;;;8.81;100.00;98452.25;6045257;23;20088;-71
2024/01/03 06:44:40;;;;;;;3.97;3.78;;;;;;;8.79;100.00;98431.44;6055414;23;20030;-72
2024/01/03 06:47:07;;;;;;;5.35;5.05;;;;;;;9.10;100.00;98466.41;6054773;23;20027;-72
2024/01/03 06:49:33;;;;;;;18.58;4.70;;;;;;;9.08;100.00;98465.69;6055900;23;20049;-70
2024/01/03 06:52:00;;;;;;;5.97;3.50;;;;;;;9.12;100.00;98445.31;6054268;23;20133;-74
2024/01/03 06:54:26;;;;;;;7.93;4.15;;;;;;;8.92;100.00;98368.47;6029389;23;20102;-74
2024/01/03 06:56:53;;;;;;;14.50;4.65;;;;;;;9.28;100.00;98393.38;6055256;23;20046;-72
2024/01/03 06:59:19;;;;;;;4.65;4.45;;;;;;;9.14;100.00;98378.84;6025038;23;20123;-72
2024/01/03 07:01:46;;;;;;;4.13;3.92;;;;;;;9.25;100.00;98375.31;6062088;23;20234;-74
2024/01/03 07:04:13;;;;;;;5.63;4.20;;;;;;;8.65;100.00;98228.63;6057258;23;20111;-72
2024/01/03 07:06:39;;;;;;;3.88;3.60;;;;;;;9.33;100.00;98351.94;6055207;23;20492;-71
2024/01/03 07:09:06;;;;;;;5.13;4.72;;;;;;;9.03;100.00;98240.25;6058635;23;20062;-71
2024/01/03 07:11:33;;;;;;;5.75;3.80;;;;;;;9.32;100.00;98282.25;6053378;23;20253;-71
2024/01/03 07:13:59;;;;;;;4.18;3.97;;;;;;;9.14;100.00;98271.56;6045974;23;20054;-70
2024/01/03 07:16:28;;;;;;;4.05;3.75;;;;;;;9.23;100.00;98279.59;6047322;23;20186;-71
2024/01/03 07:18:54;;;;;;;5.78;4.00;;;;;;;9.19;100.00;98292.91;6027908;23;20085;-72
2024/01/03 07:21:22;;;;;;;4.85;4.55;;;;;;;8.90;100.00;98265.75;6048987;23;20022;-70
2024/01/03 07:23:49;;;;;;;4.30;4.03;;;;;;;9.10;100.00;98262.31;6023092;23;20043;-70
2024/01/03 07:26:17;;;;;;;3.58;3.47;;;;;;;8.89;100.00;98217.03;6038682;23;20025;-74
2024/01/03 07:28:44;;;;;;;9.98;3.75;;;;;;;9.19;100.00;98250.22;6011939;23;20469;-70
2024/01/03 07:31:11;;;;;;;14.30;5.63;;;;;;;9.09;100.00;98208.31;6045116;23;20036;-72
2024/01/03 07:33:40;;;;;;;7.53;4.05;;;;;;;9.44;100.00;98243.72;6041407;23;20282;-72
2024/01/03 07:36:07;;;;;;;4.28;3.92;;;;;;;9.17;100.00;98189.34;6022693;23;20039;-73
2024/01/03 07:38:34;;;;;;;3.65;3.50;;;;;;;9.42;100.00;98193.28;6041164;23;20374;-69
2024/01/03 07:41:01;;;;;;;3.70;3.60;;;;;;;9.13;100.00;98128.59;6044592;23;20368;-73
2024/01/03 07:43:27;;;;;;;4.22;4.03;;;;;;;9.53;100.00;98189.72;6026177;23;20093;-72
2024/01/03 07:45:54;;;;;;;3.88;3.67;;;;;;;9.63;100.00;98164.38;6053867;23;20271;-73
2024/01/03 07:48:20;;;;;;;4.40;4.10;;;;;;;9.73;100.00;98112.81;6030064;23;20019;-72
2024/01/03 07:50:47;;;;;;;3.60;3.50;;;;;;;9.38;100.00;98025.19;6046984;23;20655;-70
2024/01/03 07:53:14;;;;;;;4.55;4.35;;;;;;;9.70;100.00;98115.72;6042207;23;20356;-72
2024/01/03 07:55:40;;;;;;;5.43;3.70;;;;;;;9.67;100.00;98149.22;6045739;23;20086;-71
2024/01/03 07:58:08;;;;;;;4.03;3.60;;;;;;;9.63;100.00;98159.13;6033100;23;20122;-73
2024/01/03 08:00:35;;;;;;;4.32;3.92;;;;;;;9.07;100.00;98087.28;6042040;23;20043;-70
2024/01/03 08:03:01;;;;;;;4.38;3.97;;;;;;;9.65;100.00;98172.09;6046112;23;20346;-70
2024/01/03 08:05:28;;;;;;;4.00;3.80;;;;;;;9.68;100.00;98162.19;6040189;23;20579;-72
2024/01/03 08:07:54;;;;;;;5.28;4.88;;;;;;;9.80;100.00;98154.97;6040921;23;20052;-71
2024/01/03 08:10:21;;;;;;;3.70;3.60;;;;;;;9.11;100.00;98062.50;6012141;23;20015;-73
2024/01/03 08:12:47;;;;;;;4.05;3.85;;;;;;;9.61;100.00;98209.97;6046673;23;20478;-72
2024/01/03 08:15:19;;;;;;;5.03;4.72;;;;;;;9.34;100.00;98229.75;6047854;23;20090;-71
2024/01/03 08:17:45;;;;;;;3.80;3.60;;;;;;;9.12;100.00;98212.44;6040864;23;20224;-72
2024/01/03 08:20:12;;;;;;;5.40;3.80;;;;;;;9.09;100.00;98228.44;6037911;23;20026;-72
2024/01/03 08:22:39;;;;;;;4.68;3.67;;;;;;;9.34;100.00;98310.88;6054783;23;20096;-71
2024/01/03 08:25:06;;;;;;;12.20;5.65;;;;;;;9.24;100.00;98323.09;6049759;23;20113;-72
2024/01/03 08:27:36;;;;;;;4.40;4.00;;;;;;;9.08;100.00;98324.41;6054061;23;20446;-72
2024/01/03 08:30:02;;;;;;;4.60;3.72;;;;;;;9.34;100.00;98376.31;6006821;23;20029;-71
2024/01/03 08:32:29;;;;;;;3.78;3.60;;;;;;;9.35;100.00;98370.13;6044776;23;20036;-70
2024/01/03 08:34:56;;;;;;;10.45;4.00;;;;;;;9.26;100.00;98329.88;6039771;23;20441;-73
2024/01/03 08:37:22;;;;;;;4.35;3.60;;;;;;;9.25;100.00;98311.69;6022494;23;20027;-73
2024/01/03 08:39:49;;;;;;;4.05;3.83;;;;;;;9.32;100.00;98286.63;6007824;23;20066;-71
2024/01/03 08:42:18;;;;;;;3.90;3.70;;;;;;;9.17;100.00;98218.94;6000416;23;20497;-72
2024/01/03 08:44:44;;;;;;;4.97;4.53;;;;;;;9.57;100.00;98225.13;6051257;23;20394;-72
2024/01/03 08:47:13;;;;;;;4.75;4.55;;;;;;;9.49;100.00;98084.44;6036643;23;20157;-72
2024/01/03 08:49:42;;;;;;;4.20;3.90;;;;;;;9.25;100.00;98031.66;6028229;23;20035;-71
2024/01/03 08:52:09;;;;;;;4.40;3.45;;;;;;;9.33;100.00;98016.09;6011175;23;20014;-71
2024/01/03 08:54:36;;;;;;;3.58;3.45;;;;;;;9.69;100.00;98042.53;6027285;23;20474;-73
2024/01/03 08:57:03;;;;;;;4.82;3.33;;;;;;;9.41;100.00;97971.72;6014649;23;20032;-73
2024/01/03 08:59:30;;;;;;;4.53;3.67;;;;;;;9.71;100.00;98066.78;6038746;23;20037;-71
2024/01/03 09:01:56;;;;;;;3.80;3.67;;;;;;;9.63;100.00;98085.81;6041875;23;20475;-71
2024/01/03 09:04:23;;;;;;;4.15;3.95;;;;;;;9.80;100.00;98081.66;5976840;23;20218;-71
2024/01/03 09:06:52;;;;;;;7.68;4.80;;;;;;;9.55;100.00;98036.75;6039137;23;20461;-72
2024/01/03 09:09:18;;;;;;;7.25;4.75;;;;;;;9.73;100.00;98060.44;6037095;23;20052;-71
2024/01/03 09:11:47;;;;;;;4.80;4.55;;;;;;;9.33;100.00;97956.72;6023535;23;20109;-72
2024/01/03 09:14:14;;;;;;;3.40;3.30;;;;;;;9.69;100.00;97970.03;6029844;23;20032;-72
2024/01/03 09:16:40;;;;;;;5.43;3.80;;;;;;;9.97;100.00;98070.47;6026113;23;20026;-70
2024/01/03 09:19:08;;;;;;;4.78;4.47;;;;;;;9.16;100.00;97910.31;6050851;23;20096;-72
2024/01/03 09:21:43;;;;;;;3.95;3.70;;;;;;;9.99;100.00;98089.47;6029229;23;20313;-72
2024/01/03 09:24:09;;;;;;;4.10;3.80;;;;;;;10.16;100.00;98131.66;6011457;23;20078;-72
2024/01/03 09:26:36;;;;;;;3.60;3.50;;;;;;;10.07;100.00;98072.25;6055188;23;20038;-73
2024/01/03 09:29:02;;;;;;;4.22;3.85;;;;;;;9.91;100.00;98064.97;6051239;23;20363;-71
2024/01/03 09:31:31;;;;;;;4.28;3.97;;;;;;;10.34;100.00;98132.63;6054261;23;20101;-71
2024/01/03 09:33:58;;;;;;;3.90;3.70;;;;;;;10.46;100.00;98141.13;6030892;23;20494;-71
2024/01/03 09:36:25;;;;;;;4.20;3.90;;;;;;;10.28;100.00;98109.56;6021638;23;20053;-71
2024/01/03 09:38:54;;;;;;;3.80;3.65;;;;;;;10.30;100.00;98115.53;6045830;23;20039;-71
2024/01/03 09:41:22;;;;;;;4.63;4.32;;;;;;;10.38;100.00;98080.72;6012199;23;20563;-71
2024/01/03 09:43:52;;;;;;;4.75;4.35;;;;;;;10.27;100.00;98094.00;6039327;23;20025;-72
2024/01/03 09:46:20;;;;;;;6.50;4.85;;;;;;;10.36;100.00;98107.09;6043088;23;20027;-71
2024/01/03 09:48:48;;;;;;;4.60;4.13;;;;;;;10.15;100.00;98040.91;6035189;23;20022;-71
2024/01/03 09:51:15;;;;;;;9.02;4.60;;;;;;;10.61;100.00;98120.53;6034406;23;20037;-72
2024/01/03 09:53:43;;;;;;;5.15;4.70;;;;;;;10.64;100.00;98090.56;6018382;23;20289;-71
2024/01/03 09:56:10;;;;;;;3.70;3.50;;;;;;;10.50;100.00;98048.13;6039306;23;20040;-73
2024/01/03 09:58:38;;;;;;;4.55;4.22;;;;;;;10.22;100.00;98052.47;6030899;23;20268;-72
2024/01/03 10:01:04;;;;;;;4.20;3.97;;;;;;;10.39;100.00;98145.31;6029789;23;20142;-72
2024/01/03 10:03:31;;;;;;;4.82;4.53;;;;;;;10.19;100.00;98202.97;6024417;23;20026;-73
2024/01/03 10:06:13;;;;;;;4.30;4.10;;;;;;;10.20;100.00;98214.28;6029454;23;20310;-71
2024/01/03 10:08:59;;;;;;;4.10;3.83;;;;;;;9.61;100.00;98233.56;6056232;23;20081;-73
2024/01/03 10:11:27;;;;;;;6.28;3.72;;;;;;;9.70;100.00;98311.28;6033083;23;20137;-72
2024/01/03 10:14:12;;;;;;;4.35;4.03;;;;;;;9.23;100.00;98329.31;6018403;23;20007;-73
2024/01/03 10:16:39;;;;;;;3.63;3.53;;;;;;;9.03;100.00;98380.69;6021837;23;20038;-72
2024/01/03 10:19:17;;;;;;;4.82;4.47;;;;;;;8.80;100.00;98412.19;6012188;23;20215;-72
2024/01/03 10:21:53;;;;;;;3.90;3.60;;;;;;;9.09;100.00;98519.69;6014805;23;20066;-73
2024/01/03 10:24:25;;;;;;;3.97;3.67;;;;;;;8.43;100.00;98450.91;6011284;23;20043;-71
2024/01/03 10:26:53;;;;;;;8.82;3.65;;;;;;;9.12;100.00;98599.69;6000365;23;20035;-71
2024/01/03 10:29:20;;;;;;;6.13;5.55;;;;;;;9.08;100.00;98614.00;6019268;23;20017;-73
2024/01/03 10:31:48;;;;;;;3.97;3.78;;;;;;;9.11;100.00;98619.81;5999942;23;20047;-69
2024/01/03 10:34:23;;;;;;;3.83;3.63;;;;;;;9.15;100.00;98618.63;6026117;23;20159;-70
2024/01/03 10:36:53;;;;;;;4.03;3.72;;;;;;;9.22;100.00;98613.75;6023613;23;20187;-71
2024/01/03 10:39:20;;;;;;;6.45;4.25;;;;;;;9.00;100.00;98570.16;6021405;23;20053;-70
2024/01/03 10:41:48;;;;;;;5.03;4.03;;;;;;;9.49;100.00;98617.69;6021066;23;20582;-71
2024/01/03 10:44:19;;;;;;;15.70;11.00;;;;;;;9.68;100.00;98607.41;5977884;23;20438;-68
2024/01/03 10:46:48;;;;;;;3.90;3.65;;;;;;;9.75;100.00;98573.66;5964012;23;20054;-71
2024/01/03 10:49:18;;;;;;;4.70;4.45;;;;;;;9.44;100.00;98432.19;5996483;23;20022;-72
2024/01/03 10:51:52;;;;;;;7.38;4.03;;;;;;;10.13;100.00;98459.56;6025015;23;20030;-70
2024/01/03 10:54:21;;;;;;;3.83;3.65;;;;;;;10.13;100.00;98370.44;6023451;23;20562;-69
2024/01/03 10:56:50;;;;;;;4.68;4.28;;;;;;;10.22;100.00;98317.19;6025313;23;20504;-71
2024/01/03 10:59:21;;;;;;;5.75;5.10;;;;;;;10.03;100.00;98233.34;6023381;23;20022;-70
2024/01/03 11:02:05;;;;;;;4.05;3.70;;;;;;;10.56;100.00;98275.72;6020873;23;20595;-70
2024/01/03 11:04:35;;;;;;;5.82;4.72;;;;;;;10.59;100.00;98201.16;6003323;23;20023;-71
2024/01/03 11:07:09;;;;;;;4.00;3.83;;;;;;;10.67;100.00;98209.16;5996755;23;20184;-68
2024/01/03 11:09:35;;;;;;;4.10;3.80;;;;;;;10.64;100.00;98161.38;6024737;23;20089;-70
2024/01/03 11:12:07;;;;;;;4.10;3.80;;;;;;;9.69;100.00;97990.16;6055376;23;20020;-70
2024/01/03 11:14:34;;;;;;;4.30;4.00;;;;;;;10.46;100.00;98108.84;6040111;23;20030;-70
2024/01/03 11:17:02;;;;;;;4.53;4.32;;;;;;;9.85;100.00;98003.47;6047093;23;20520;-71
2024/01/03 11:19:33;;;;;;;4.20;3.83;;;;;;;10.83;100.00;98121.16;6006851;23;20047;-70
2024/01/03 11:22:03;;;;;;;3.88;3.70;;;;;;;10.78;100.00;98114.53;6058171;23;20025;-70
2024/01/03 11:24:33;;;;;;;3.90;3.70;;;;;;;10.77;100.00;98078.78;6063089;23;20042;-70
2024/01/03 11:27:06;;;;;;;7.43;3.92;;;;;;;10.48;100.00;98128.72;6056059;23;20019;-72
2024/01/03 11:29:36;;;;;;;8.13;3.70;;;;;;;10.61;100.00;98186.09;6061801;23;20091;-71
2024/01/03 11:32:32;;;;;;;3.75;3.65;;;;;;;10.56;100.00;98256.50;6038560;23;20048;-72
2024/01/03 11:35:06;;;;;;;4.85;4.43;;;;;;;9.42;100.00;98069.41;6054454;23;20268;-69